createdAt,value
2019-01-27T00:00:38.902Z,69.53
2019-01-27T00:01:39.898Z,71.53
2019-01-27T00:02:40.760Z,71.25
2019-01-27T00:03:41.636Z,71.08
2019-01-27T00:04:42.494Z,69.45
2019-01-27T00:05:43.356Z,69.54
2019-01-27T00:06:44.265Z,70.78
2019-01-27T00:07:45.147Z,70.28
2019-01-27T00:08:46.023Z,68.03
2019-01-27T00:09:46.980Z,69.48
2019-01-27T00:10:47.857Z,70.60
2019-01-27T00:11:48.926Z,69.70
2019-01-27T00:12:49.842Z,69.54
2019-01-27T00:13:50.910Z,69.61
2019-01-27T00:14:51.770Z,68.67
2019-01-27T00:15:52.636Z,69.52
2019-01-27T00:16:53.540Z,70.03
2019-01-27T00:17:54.409Z,69.72
2019-01-27T00:18:55.276Z,71.21
2019-01-27T00:19:56.148Z,71.17
2019-01-27T00:20:57.000Z,70.14
2019-01-27T00:21:57.894Z,69.96
2019-01-27T00:22:58.757Z,69.70
2019-01-27T00:23:59.641Z,69.68
2019-01-27T00:25:00.496Z,67.66
2019-01-27T00:26:01.353Z,69.96
2019-01-27T00:27:02.345Z,69.56
2019-01-27T00:28:03.304Z,68.55
2019-01-27T00:29:04.160Z,68.77
2019-01-27T00:30:17.528Z,68.18
2019-01-27T00:31:18.402Z,68.40
2019-01-27T00:32:19.305Z,68.17
2019-01-27T00:33:20.186Z,67.97
2019-01-27T00:34:21.056Z,69.19
2019-01-27T00:35:22.017Z,69.07
2019-01-27T00:36:22.884Z,68.65
2019-01-27T00:37:23.777Z,68.44
2019-01-27T00:38:24.646Z,66.99
2019-01-27T00:39:25.519Z,68.82
2019-01-27T00:40:26.432Z,67.30
2019-01-27T00:41:27.497Z,69.76
2019-01-27T00:42:28.358Z,69.73
2019-01-27T00:43:29.227Z,70.46
2019-01-27T00:44:30.089Z,69.04
2019-01-27T00:45:30.990Z,68.18
2019-01-27T00:46:31.954Z,70.04
2019-01-27T00:47:32.833Z,70.27
2019-01-27T00:48:33.691Z,69.81
2019-01-27T00:49:34.589Z,70.43
2019-01-27T00:50:35.480Z,69.69
2019-01-27T00:51:36.357Z,70.43
2019-01-27T00:52:37.233Z,69.69
2019-01-27T00:53:38.108Z,68.98
2019-01-27T00:54:38.971Z,69.96
2019-01-27T00:55:39.883Z,69.58
2019-01-27T00:56:40.756Z,69.43
2019-01-27T00:57:41.614Z,69.39
2019-01-27T00:58:42.475Z,70.08
2019-01-27T00:59:43.343Z,69.13
2019-01-27T01:00:44.255Z,69.88
2019-01-27T01:01:45.099Z,69.07
2019-01-27T01:02:45.993Z,70.32
2019-01-27T01:03:46.863Z,68.47
2019-01-27T01:04:47.731Z,71.01
2019-01-27T01:05:48.647Z,69.32
2019-01-27T01:06:49.525Z,69.51
2019-01-27T01:07:50.381Z,71.56
2019-01-27T01:08:51.259Z,70.68
2019-01-27T01:09:52.115Z,71.68
2019-01-27T01:10:53.015Z,71.00
2019-01-27T01:11:53.868Z,70.00
2019-01-27T01:12:54.736Z,71.73
2019-01-27T01:13:55.700Z,71.28
2019-01-27T01:14:56.571Z,70.00
2019-01-27T01:15:57.479Z,71.26
2019-01-27T01:16:58.343Z,70.35
2019-01-27T01:17:59.209Z,70.01
2019-01-27T01:19:00.081Z,70.35
2019-01-27T01:20:01.278Z,69.75
2019-01-27T01:21:02.357Z,68.90
2019-01-27T01:22:03.220Z,70.06
2019-01-27T01:23:04.179Z,71.04
2019-01-27T01:24:05.047Z,71.00
2019-01-27T01:25:12.048Z,69.34
2019-01-27T01:26:12.950Z,70.80
2019-01-27T01:27:13.871Z,70.77
2019-01-27T01:28:14.749Z,70.46
2019-01-27T01:29:15.611Z,68.36
2019-01-27T01:30:19.207Z,69.92
2019-01-27T01:31:20.076Z,70.25
2019-01-27T01:32:20.975Z,70.13
2019-01-27T01:33:21.832Z,69.87
2019-01-27T01:34:22.687Z,69.92
2019-01-27T01:35:23.576Z,69.54
2019-01-27T01:36:24.424Z,69.31
2019-01-27T01:37:25.329Z,67.67
2019-01-27T01:38:26.209Z,69.92
2019-01-27T01:39:27.082Z,70.35
2019-01-27T01:40:27.945Z,67.24
2019-01-27T01:41:28.813Z,68.57
2019-01-27T01:42:29.717Z,68.37
2019-01-27T01:43:30.690Z,70.13
2019-01-27T01:44:31.576Z,69.50
2019-01-27T01:45:32.429Z,70.34
2019-01-27T01:46:33.283Z,70.90
2019-01-27T01:47:34.189Z,68.91
2019-01-27T01:48:35.140Z,69.84
2019-01-27T01:49:36.031Z,68.72
2019-01-27T01:50:36.880Z,69.49
2019-01-27T01:51:37.751Z,69.66
2019-01-27T01:52:38.637Z,69.48
2019-01-27T01:53:39.497Z,69.09
2019-01-27T01:54:40.467Z,69.25
2019-01-27T01:55:41.346Z,69.42
2019-01-27T01:56:42.200Z,68.01
2019-01-27T01:57:43.107Z,69.43
2019-01-27T01:58:43.966Z,69.54
2019-01-27T01:59:44.827Z,68.78
2019-01-27T02:00:45.691Z,69.69
2019-01-27T02:01:46.567Z,69.31
2019-01-27T02:02:47.458Z,68.80
2019-01-27T02:03:48.325Z,69.67
2019-01-27T02:04:49.183Z,69.54
2019-01-27T02:05:50.046Z,69.35
2019-01-27T02:06:50.918Z,68.37
2019-01-27T02:07:51.922Z,70.54
2019-01-27T02:08:52.782Z,69.74
2019-01-27T02:09:53.640Z,69.32
2019-01-27T02:10:54.501Z,69.92
2019-01-27T02:11:55.395Z,69.37
2019-01-27T02:12:56.259Z,69.45
2019-01-27T02:13:57.111Z,68.07
2019-01-27T02:14:57.971Z,69.12
2019-01-27T02:16:00.747Z,69.95
2019-01-27T02:17:01.766Z,70.02
2019-01-27T02:18:02.616Z,69.44
2019-01-27T02:19:03.491Z,69.15
2019-01-27T02:20:04.367Z,69.03
2019-01-27T02:21:05.235Z,68.34
2019-01-27T02:22:06.155Z,67.85
2019-01-27T02:23:07.033Z,67.28
2019-01-27T02:24:07.895Z,67.01
2019-01-27T02:25:08.813Z,68.01
2019-01-27T02:26:09.671Z,68.25
2019-01-27T02:27:10.575Z,67.99
2019-01-27T02:28:11.435Z,67.73
2019-01-27T02:29:12.291Z,67.00
2019-01-27T02:30:14.664Z,67.14
2019-01-27T02:31:15.532Z,69.79
2019-01-27T02:32:16.405Z,69.66
2019-01-27T02:33:17.564Z,69.84
2019-01-27T02:34:18.457Z,69.51
2019-01-27T02:35:19.329Z,69.21
2019-01-27T02:36:21.655Z,68.70
2019-01-27T02:37:22.512Z,69.14
2019-01-27T02:38:23.361Z,68.89
2019-01-27T02:39:24.274Z,69.06
2019-01-27T02:40:25.204Z,69.13
2019-01-27T02:41:26.066Z,69.06
2019-01-27T02:42:26.922Z,68.19
2019-01-27T02:43:27.777Z,67.92
2019-01-27T02:44:28.659Z,65.86
2019-01-27T02:45:29.512Z,68.60
2019-01-27T02:46:30.367Z,68.91
2019-01-27T02:47:31.301Z,67.39
2019-01-27T02:48:32.267Z,68.21
2019-01-27T02:49:33.153Z,67.63
2019-01-27T02:50:34.003Z,69.44
2019-01-27T02:51:34.861Z,69.31
2019-01-27T02:52:35.831Z,69.86
2019-01-27T02:53:36.699Z,70.10
2019-01-27T02:54:37.589Z,70.28
2019-01-27T02:55:38.453Z,69.84
2019-01-27T02:56:39.314Z,69.45
2019-01-27T02:57:42.149Z,68.05
2019-01-27T02:58:43.012Z,68.06
2019-01-27T02:59:43.931Z,69.43
2019-01-27T03:00:44.794Z,69.43
2019-01-27T03:01:45.657Z,69.87
2019-01-27T03:02:46.542Z,69.55
2019-01-27T03:03:47.433Z,69.20
2019-01-27T03:04:48.341Z,69.34
2019-01-27T03:06:06.169Z,67.17
2019-01-27T03:07:08.966Z,68.81
2019-01-27T03:08:10.334Z,70.10
2019-01-27T03:09:11.389Z,69.80
2019-01-27T03:10:17.163Z,68.51
2019-01-27T03:11:18.123Z,67.93
2019-01-27T03:12:18.985Z,70.46
2019-01-27T03:13:19.848Z,67.75
2019-01-27T03:14:20.723Z,68.82
2019-01-27T03:15:21.589Z,70.44
2019-01-27T03:16:22.558Z,67.65
2019-01-27T03:17:23.511Z,68.83
2019-01-27T03:18:24.370Z,67.85
2019-01-27T03:19:25.642Z,68.36
2019-01-27T03:20:26.502Z,68.48
2019-01-27T03:21:27.373Z,68.87
2019-01-27T03:22:28.247Z,68.61
2019-01-27T03:23:29.114Z,71.03
2019-01-27T03:24:30.067Z,69.65
2019-01-27T03:25:31.006Z,67.83
2019-01-27T03:26:31.826Z,70.76
2019-01-27T03:27:32.681Z,70.70
2019-01-27T03:28:33.542Z,68.42
2019-01-27T03:29:39.689Z,70.78
2019-01-27T03:30:40.586Z,70.55
2019-01-27T03:31:41.473Z,69.82
2019-01-27T03:32:42.350Z,70.19
2019-01-27T03:33:43.205Z,70.42
2019-01-27T03:34:44.071Z,70.16
2019-01-27T03:35:44.961Z,69.36
2019-01-27T03:36:45.827Z,70.64
2019-01-27T03:37:46.693Z,70.11
2019-01-27T03:38:47.548Z,69.99
2019-01-27T03:39:48.428Z,68.51
2019-01-27T03:40:49.349Z,68.22
2019-01-27T03:41:50.214Z,69.41
2019-01-27T03:42:51.084Z,70.51
2019-01-27T03:43:51.937Z,69.24
2019-01-27T03:44:52.792Z,68.63
2019-01-27T03:45:53.663Z,68.51
2019-01-27T03:46:54.516Z,68.41
2019-01-27T03:47:55.403Z,70.46
2019-01-27T03:48:56.272Z,69.00
2019-01-27T03:49:57.141Z,69.41
2019-01-27T03:50:57.997Z,70.96
2019-01-27T03:51:58.851Z,70.07
2019-01-27T03:52:59.749Z,68.62
2019-01-27T03:54:00.708Z,68.60
2019-01-27T03:55:04.570Z,69.70
2019-01-27T03:56:05.770Z,70.39
2019-01-27T03:57:06.765Z,69.75
2019-01-27T03:58:07.765Z,70.05
2019-01-27T03:59:08.717Z,71.26
2019-01-27T04:00:15.493Z,69.25
2019-01-27T04:01:16.350Z,71.48
2019-01-27T04:02:17.306Z,70.78
2019-01-27T04:03:18.341Z,69.57
2019-01-27T04:04:19.205Z,71.05
2019-01-27T04:05:20.074Z,70.83
2019-01-27T04:06:21.206Z,70.57
2019-01-27T04:07:22.061Z,68.52
2019-01-27T04:08:22.953Z,70.12
2019-01-27T04:09:23.807Z,70.21
2019-01-27T04:10:28.581Z,70.37
2019-01-27T04:11:29.437Z,70.33
2019-01-27T04:12:30.293Z,69.78
2019-01-27T04:13:31.241Z,70.07
2019-01-27T04:14:32.209Z,69.74
2019-01-27T04:15:33.104Z,69.52
2019-01-27T04:16:33.959Z,70.11
2019-01-27T04:17:34.815Z,70.31
2019-01-27T04:18:35.713Z,67.75
2019-01-27T04:19:36.588Z,70.47
2019-01-27T04:20:37.483Z,69.04
2019-01-27T04:21:38.550Z,69.38
2019-01-27T04:22:39.402Z,68.90
2019-01-27T04:23:40.290Z,69.68
2019-01-27T04:24:41.360Z,69.56
2019-01-27T04:25:43.029Z,67.36
2019-01-27T04:26:43.906Z,68.91
2019-01-27T04:27:44.761Z,68.59
2019-01-27T04:28:45.683Z,70.05
2019-01-27T04:29:46.682Z,69.88
2019-01-27T04:30:47.552Z,68.92
2019-01-27T04:31:48.408Z,68.87
2019-01-27T04:32:49.262Z,69.88
2019-01-27T04:33:50.149Z,69.25
2019-01-27T04:34:51.006Z,69.88
2019-01-27T04:35:51.865Z,69.77
2019-01-27T04:36:52.755Z,69.53
2019-01-27T04:37:53.616Z,68.20
2019-01-27T04:38:54.513Z,69.48
2019-01-27T04:39:55.406Z,68.65
2019-01-27T04:40:56.318Z,69.21
2019-01-27T04:41:57.322Z,70.80
2019-01-27T04:42:58.183Z,69.20
2019-01-27T04:43:59.089Z,69.99
2019-01-27T04:44:59.951Z,70.30
2019-01-27T04:46:00.919Z,69.57
2019-01-27T04:47:01.895Z,70.01
2019-01-27T04:48:03.861Z,69.95
2019-01-27T04:49:04.891Z,70.16
2019-01-27T04:50:09.078Z,69.92
2019-01-27T04:51:09.933Z,70.27
2019-01-27T04:52:10.784Z,70.04
2019-01-27T04:53:11.638Z,69.41
2019-01-27T04:54:12.534Z,69.68
2019-01-27T04:55:17.209Z,69.29
2019-01-27T04:56:18.156Z,69.16
2019-01-27T04:57:19.121Z,68.90
2019-01-27T04:58:20.006Z,68.97
2019-01-27T04:59:20.904Z,68.38
2019-01-27T05:00:23.364Z,68.63
2019-01-27T05:01:24.232Z,68.97
2019-01-27T05:02:27.018Z,69.19
2019-01-27T05:03:32.814Z,69.38
2019-01-27T05:04:33.711Z,68.85
2019-01-27T05:05:34.565Z,67.72
2019-01-27T05:06:38.515Z,70.02
2019-01-27T05:07:39.389Z,69.11
2019-01-27T05:08:40.248Z,67.64
2019-01-27T05:09:41.266Z,70.14
2019-01-27T05:10:42.124Z,69.93
2019-01-27T05:11:42.986Z,68.07
2019-01-27T05:12:43.855Z,69.15
2019-01-27T05:13:44.728Z,70.58
2019-01-27T05:14:45.624Z,70.11
2019-01-27T05:15:46.521Z,68.52
2019-01-27T05:16:47.380Z,68.48
2019-01-27T05:17:48.232Z,69.95
2019-01-27T05:18:49.089Z,70.59
2019-01-27T05:19:50.051Z,68.76
2019-01-27T05:20:50.855Z,70.41
2019-01-27T05:21:51.715Z,68.85
2019-01-27T05:22:52.573Z,70.08
2019-01-27T05:23:53.567Z,69.63
2019-01-27T05:24:54.476Z,70.29
2019-01-27T05:25:55.331Z,68.41
2019-01-27T05:26:56.178Z,70.72
2019-01-27T05:27:57.035Z,70.34
2019-01-27T05:28:57.888Z,70.48
2019-01-27T05:29:58.823Z,69.87
2019-01-27T05:30:59.699Z,70.17
2019-01-27T05:32:00.550Z,70.13
2019-01-27T05:33:01.421Z,69.75
2019-01-27T05:34:02.394Z,69.39
2019-01-27T05:35:05.144Z,69.36
2019-01-27T05:36:05.940Z,69.74
2019-01-27T05:37:06.798Z,68.37
2019-01-27T05:38:07.648Z,70.51
2019-01-27T05:39:08.500Z,70.26
2019-01-27T05:40:11.798Z,69.81
2019-01-27T05:41:12.672Z,69.32
2019-01-27T05:42:13.539Z,70.22
2019-01-27T05:43:14.405Z,69.90
2019-01-27T05:44:15.256Z,70.13
2019-01-27T05:45:19.101Z,70.42
2019-01-27T05:46:20.045Z,69.71
2019-01-27T05:47:20.920Z,69.12
2019-01-27T05:48:21.837Z,69.79
2019-01-27T05:49:22.690Z,70.80
2019-01-27T05:50:23.770Z,70.32
2019-01-27T05:51:24.637Z,69.23
2019-01-27T05:52:25.560Z,70.01
2019-01-27T05:53:26.547Z,70.06
2019-01-27T05:54:27.406Z,69.90
2019-01-27T05:55:28.431Z,69.42
2019-01-27T05:56:30.228Z,68.88
2019-01-27T05:57:31.088Z,68.61
2019-01-27T05:58:32.194Z,70.35
2019-01-27T05:59:33.151Z,69.82
2019-01-27T06:00:35.968Z,70.50
2019-01-27T06:01:36.824Z,70.52
2019-01-27T06:02:37.750Z,69.97
2019-01-27T06:03:38.615Z,68.93
2019-01-27T06:04:39.477Z,69.36
2019-01-27T06:05:40.396Z,70.26
2019-01-27T06:06:41.278Z,70.64
2019-01-27T06:07:42.146Z,70.58
2019-01-27T06:08:43.011Z,71.29
2019-01-27T06:09:43.980Z,70.80
2019-01-27T06:10:44.876Z,71.15
2019-01-27T06:11:46.132Z,70.94
2019-01-27T06:12:46.982Z,70.95
2019-01-27T06:13:47.835Z,70.58
2019-01-27T06:14:48.689Z,69.04
2019-01-27T06:15:49.574Z,70.93
2019-01-27T06:16:53.115Z,68.13
2019-01-27T06:17:53.965Z,70.37
2019-01-27T06:18:54.947Z,70.64
2019-01-27T06:19:55.811Z,69.85
2019-01-27T06:20:57.934Z,69.17
2019-01-27T06:22:01.026Z,68.93
2019-01-27T06:23:02.028Z,68.65
2019-01-27T06:24:02.895Z,70.62
2019-01-27T06:25:11.744Z,70.43
2019-01-27T06:26:12.631Z,70.06
2019-01-27T06:27:13.662Z,69.32
2019-01-27T06:28:14.516Z,70.93
2019-01-27T06:29:15.401Z,69.09
2019-01-27T06:30:22.312Z,71.25
2019-01-27T06:31:23.256Z,70.84
2019-01-27T06:32:41.432Z,69.38
2019-01-27T06:33:44.249Z,69.29
2019-01-27T06:34:47.468Z,70.91
2019-01-27T06:35:48.497Z,70.62
2019-01-27T06:36:49.398Z,69.59
2019-01-27T06:37:50.258Z,71.30
2019-01-27T06:38:51.126Z,69.23
2019-01-27T06:39:51.998Z,70.99
2019-01-27T06:40:52.922Z,70.28
2019-01-27T06:41:55.464Z,68.77
2019-01-27T06:42:56.315Z,70.76
2019-01-27T06:43:57.181Z,70.47
2019-01-27T06:44:58.103Z,70.20
2019-01-27T06:45:58.966Z,69.89
2019-01-27T06:46:59.859Z,69.88
2019-01-27T06:48:00.726Z,70.62
2019-01-27T06:49:01.713Z,71.84
2019-01-27T06:50:06.407Z,71.23
2019-01-27T06:51:09.399Z,69.92
2019-01-27T06:52:10.299Z,70.80
2019-01-27T06:53:11.213Z,70.96
2019-01-27T06:54:12.112Z,71.26
2019-01-27T06:55:20.578Z,69.79
2019-01-27T06:56:21.449Z,71.12
2019-01-27T06:57:22.320Z,70.81
2019-01-27T06:58:25.174Z,70.88
2019-01-27T06:59:28.007Z,69.46
2019-01-27T07:00:37.023Z,72.41
2019-01-27T07:01:39.808Z,70.66
2019-01-27T07:02:41.290Z,72.42
2019-01-27T07:03:46.837Z,71.84
2019-01-27T07:04:49.742Z,71.03
2019-01-27T07:05:55.510Z,70.33
2019-01-27T07:07:01.289Z,70.80
2019-01-27T07:08:05.792Z,69.35
2019-01-27T07:09:08.747Z,70.75
2019-01-27T07:10:11.549Z,70.47
2019-01-27T07:11:23.323Z,71.12
2019-01-27T07:12:29.110Z,70.92
2019-01-27T07:13:31.878Z,70.48
2019-01-27T07:14:51.274Z,71.06
2019-01-27T07:16:12.176Z,71.05
2019-01-27T07:17:31.605Z,71.64
2019-01-27T07:18:43.273Z,71.28
2019-01-27T07:19:46.839Z,71.24
2019-01-27T07:20:49.594Z,71.71
2019-01-27T07:21:55.093Z,72.21
2019-01-27T07:22:57.852Z,70.47
2019-01-27T07:24:00.624Z,70.76
2019-01-27T07:25:20.216Z,72.07
2019-01-27T07:26:32.089Z,72.57
2019-01-27T07:27:37.610Z,72.28
2019-01-27T07:28:43.577Z,72.89
2019-01-27T07:30:02.880Z,71.17
2019-01-27T07:31:08.679Z,70.50
2019-01-27T07:32:11.479Z,71.75
2019-01-27T07:33:30.608Z,72.75
2019-01-27T07:34:49.403Z,72.54
2019-01-27T07:35:54.998Z,72.00
2019-01-27T07:36:57.763Z,72.48
2019-01-27T07:38:06.689Z,70.28
2019-01-27T07:39:12.677Z,72.11
2019-01-27T07:40:17.990Z,72.75
2019-01-27T07:41:21.030Z,73.43
2019-01-27T07:42:26.816Z,72.65
2019-01-27T07:43:44.550Z,72.44
2019-01-27T07:44:56.100Z,72.36
2019-01-27T07:45:58.853Z,73.33
2019-01-27T07:47:12.554Z,72.12
2019-01-27T07:48:27.060Z,72.42
2019-01-27T07:49:44.767Z,72.65
2019-01-27T07:50:56.702Z,72.01
2019-01-27T07:52:02.288Z,71.21
2019-01-27T07:53:08.009Z,71.88
2019-01-27T07:54:16.877Z,72.69
2019-01-27T07:55:31.626Z,71.73
2019-01-27T07:56:43.228Z,71.80
2019-01-27T07:57:52.124Z,72.40
2019-01-27T07:59:06.860Z,72.42
2019-01-27T08:00:22.290Z,71.31
2019-01-27T08:01:27.628Z,72.14
2019-01-27T08:02:33.440Z,72.10
2019-01-27T08:03:45.461Z,72.11
2019-01-27T08:04:53.469Z,70.41
2019-01-27T08:05:57.340Z,71.62
2019-01-27T08:07:12.076Z,71.83
2019-01-27T08:08:17.792Z,70.21
2019-01-27T08:09:35.474Z,71.50
2019-01-27T08:10:46.470Z,71.22
2019-01-27T08:11:58.236Z,70.85
2019-01-27T08:13:01.000Z,70.63
2019-01-27T08:14:06.761Z,70.56
2019-01-27T08:15:16.857Z,70.82
2019-01-27T08:16:36.550Z,71.73
2019-01-27T08:17:39.298Z,70.68
2019-01-27T08:18:42.058Z,72.62
2019-01-27T08:19:54.028Z,72.48
2019-01-27T08:21:02.821Z,72.92
2019-01-27T08:22:05.590Z,72.33
2019-01-27T08:23:11.011Z,70.47
2019-01-27T08:24:19.732Z,72.33
2019-01-27T08:25:31.256Z,71.96
2019-01-27T08:26:42.302Z,72.00
2019-01-27T08:27:50.207Z,72.04
2019-01-27T08:28:55.795Z,72.32
2019-01-27T08:30:16.867Z,70.91
2019-01-27T08:32:54.333Z,71.97
2019-01-27T08:33:57.200Z,71.49
2019-01-27T08:35:02.580Z,72.07
2019-01-27T08:36:08.308Z,72.18
2019-01-27T08:37:15.324Z,71.52
2019-01-27T08:38:28.312Z,70.10
2019-01-27T08:39:31.207Z,71.19
2019-01-27T08:40:34.046Z,70.93
2019-01-27T08:41:53.492Z,71.88
2019-01-27T08:42:59.023Z,71.55
2019-01-27T08:44:07.449Z,71.48
2019-01-27T08:45:16.417Z,71.22
2019-01-27T08:46:21.866Z,71.10
2019-01-27T08:47:22.732Z,71.34
2019-01-27T08:48:23.586Z,71.70
2019-01-27T08:49:24.493Z,71.42
2019-01-27T08:50:25.504Z,70.92
2019-01-27T08:51:26.375Z,70.14
2019-01-27T08:52:27.299Z,69.81
2019-01-27T08:53:28.168Z,71.59
2019-01-27T08:54:29.068Z,72.12
2019-01-27T08:55:29.927Z,70.92
2019-01-27T08:56:30.792Z,71.83
2019-01-27T08:57:31.668Z,70.32
2019-01-27T08:58:32.537Z,72.40
2019-01-27T08:59:33.432Z,70.44
2019-01-27T09:00:34.800Z,72.20
2019-01-27T09:01:37.567Z,71.02
2019-01-27T09:02:51.508Z,71.63
2019-01-27T09:04:00.490Z,72.24
2019-01-27T09:05:03.635Z,70.72
2019-01-27T09:06:08.932Z,71.96
2019-01-27T09:07:11.701Z,73.09
2019-01-27T09:08:20.232Z,72.96
2019-01-27T09:09:39.637Z,72.64
2019-01-27T09:10:51.667Z,73.02
2019-01-27T09:11:54.524Z,71.28
2019-01-27T09:13:13.782Z,72.99
2019-01-27T09:14:33.530Z,72.48
2019-01-27T09:15:36.310Z,72.41
2019-01-27T09:16:41.693Z,72.66
2019-01-27T09:17:44.461Z,72.22
2019-01-27T09:18:47.234Z,71.82
2019-01-27T09:19:50.145Z,71.24
2019-01-27T09:20:57.196Z,71.21
2019-01-27T09:22:01.913Z,71.31
2019-01-27T09:23:04.678Z,70.63
2019-01-27T09:24:10.214Z,70.23
2019-01-27T09:25:18.648Z,72.18
2019-01-27T09:26:24.208Z,72.03
2019-01-27T09:27:32.914Z,70.27
2019-01-27T09:28:35.800Z,71.30
2019-01-27T09:29:38.680Z,69.93
2019-01-27T09:30:41.450Z,71.23
2019-01-27T09:31:50.310Z,72.45
2019-01-27T09:32:56.244Z,71.10
2019-01-27T09:34:02.489Z,72.37
2019-01-27T09:35:17.288Z,69.23
2019-01-27T09:36:32.028Z,70.68
2019-01-27T09:37:40.934Z,71.87
2019-01-27T09:38:46.508Z,72.19
2019-01-27T09:39:55.059Z,69.86
2019-01-27T09:41:03.970Z,70.03
2019-01-27T09:42:06.748Z,70.77
2019-01-27T09:43:15.418Z,70.23
2019-01-27T09:44:33.382Z,70.25
2019-01-27T09:45:36.146Z,72.30
2019-01-27T09:46:38.923Z,72.51
2019-01-27T09:47:41.790Z,71.07
2019-01-27T09:48:44.572Z,72.58
2019-01-27T09:49:58.623Z,72.20
2019-01-27T09:51:04.312Z,71.50
2019-01-27T09:52:07.095Z,70.05
2019-01-27T09:53:09.852Z,69.63
2019-01-27T09:54:12.614Z,72.61
2019-01-27T09:55:18.332Z,69.66
2019-01-27T09:56:37.874Z,70.54
2019-01-27T09:57:43.589Z,70.63
2019-01-27T09:58:49.250Z,69.79
2019-01-27T09:59:52.058Z,70.06
2019-01-27T10:00:54.847Z,72.94
2019-01-27T10:01:57.604Z,71.81
2019-01-27T10:03:00.531Z,72.94
2019-01-27T10:04:05.953Z,71.96
2019-01-27T10:05:09.947Z,71.63
2019-01-27T10:06:21.400Z,68.97
2019-01-27T10:07:36.068Z,70.20
2019-01-27T10:08:38.833Z,71.90
2019-01-27T10:09:44.326Z,69.73
2019-01-27T10:11:05.305Z,71.40
2019-01-27T10:12:19.714Z,71.67
2019-01-27T10:13:28.400Z,70.44
2019-01-27T10:14:37.398Z,71.75
2019-01-27T10:15:40.197Z,70.54
2019-01-27T10:16:53.255Z,70.35
2019-01-27T10:17:56.025Z,70.36
2019-01-27T10:19:12.558Z,72.06
2019-01-27T10:20:24.848Z,70.21
2019-01-27T10:21:27.732Z,70.11
2019-01-27T10:22:33.538Z,70.00
2019-01-27T10:23:53.707Z,71.04
2019-01-27T10:24:59.678Z,71.09
2019-01-27T10:26:02.443Z,70.14
2019-01-27T10:27:05.416Z,73.06
2019-01-27T10:28:17.140Z,70.52
2019-01-27T10:29:19.902Z,70.61
2019-01-27T10:30:28.444Z,71.01
2019-01-27T10:31:31.224Z,71.15
2019-01-27T10:32:39.710Z,70.60
2019-01-27T10:34:00.759Z,70.61
2019-01-27T10:35:06.442Z,70.76
2019-01-27T10:36:27.456Z,70.93
2019-01-27T10:37:36.295Z,70.93
2019-01-27T10:38:41.599Z,70.91
2019-01-27T10:39:44.421Z,70.94
2019-01-27T10:40:47.202Z,71.74
2019-01-27T10:41:49.972Z,71.01
2019-01-27T10:43:01.834Z,71.18
2019-01-27T10:44:21.138Z,70.74
2019-01-27T10:45:23.944Z,73.43
2019-01-27T10:46:32.691Z,70.35
2019-01-27T10:47:35.460Z,70.63
2019-01-27T10:48:41.354Z,72.78
2019-01-27T10:49:52.954Z,72.88
2019-01-27T10:51:12.384Z,70.94
2019-01-27T10:52:15.167Z,71.29
2019-01-27T10:53:20.901Z,71.64
2019-01-27T10:54:25.347Z,70.99
2019-01-27T10:55:34.585Z,71.50
2019-01-27T10:56:55.356Z,70.88
2019-01-27T10:58:04.315Z,71.42
2019-01-27T10:59:25.384Z,71.00
2019-01-27T11:00:28.258Z,73.92
2019-01-27T11:01:33.704Z,71.39
2019-01-27T11:02:42.264Z,71.82
2019-01-27T11:04:02.054Z,71.46
2019-01-27T11:05:08.528Z,71.29
2019-01-27T11:06:13.840Z,73.21
2019-01-27T11:07:22.452Z,71.37
2019-01-27T11:08:25.258Z,70.81
2019-01-27T11:09:44.834Z,72.46
2019-01-27T11:10:53.844Z,72.75
2019-01-27T11:11:56.606Z,71.03
2019-01-27T11:13:17.464Z,71.17
2019-01-27T11:14:32.542Z,70.74
2019-01-27T11:15:47.533Z,70.84
2019-01-27T11:16:56.362Z,71.21
2019-01-27T11:17:59.144Z,71.12
2019-01-27T11:19:18.572Z,71.71
2019-01-27T11:20:39.990Z,72.29
2019-01-27T11:21:43.261Z,71.32
2019-01-27T11:22:55.474Z,73.70
2019-01-27T11:23:58.240Z,70.56
2019-01-27T11:25:03.670Z,70.71
2019-01-27T11:26:15.458Z,72.12
2019-01-27T11:27:24.321Z,71.85
2019-01-27T11:28:36.104Z,71.64
2019-01-27T11:29:38.872Z,72.56
2019-01-27T11:30:44.664Z,71.18
2019-01-27T11:31:49.961Z,71.19
2019-01-27T11:33:09.045Z,73.34
2019-01-27T11:34:18.010Z,72.14
2019-01-27T11:35:23.802Z,70.97
2019-01-27T11:36:26.568Z,73.58
2019-01-27T11:37:46.026Z,70.76
2019-01-27T11:38:48.806Z,71.15
2019-01-27T11:40:08.267Z,71.17
2019-01-27T11:41:11.037Z,71.27
2019-01-27T11:42:19.577Z,71.33
2019-01-27T11:43:28.374Z,72.63
2019-01-27T11:44:48.517Z,71.87
2019-01-27T11:45:54.432Z,71.43
2019-01-27T11:47:12.488Z,73.00
2019-01-27T11:48:24.296Z,74.04
2019-01-27T11:49:27.058Z,71.19
2019-01-27T11:50:29.828Z,73.04
2019-01-27T11:51:32.238Z,72.11
2019-01-27T11:52:33.102Z,72.69
2019-01-27T11:53:34.075Z,74.49
2019-01-27T11:54:34.935Z,71.43
2019-01-27T11:55:35.801Z,71.65
2019-01-27T11:56:36.667Z,73.49
2019-01-27T11:57:37.565Z,72.13
2019-01-27T11:58:38.454Z,72.21
2019-01-27T11:59:39.314Z,75.24
2019-01-27T12:00:41.892Z,75.13
2019-01-27T12:01:42.741Z,72.08
2019-01-27T12:02:46.635Z,71.74
2019-01-27T12:03:46.413Z,72.13
2019-01-27T12:04:47.267Z,73.99
2019-01-27T12:05:48.128Z,72.75
2019-01-27T12:06:48.992Z,75.51
2019-01-27T12:07:49.903Z,73.90
2019-01-27T12:08:50.750Z,75.39
2019-01-27T12:09:51.713Z,75.05
2019-01-27T12:10:52.676Z,75.18
2019-01-27T12:11:53.546Z,73.12
2019-01-27T12:12:54.433Z,72.32
2019-01-27T12:13:55.377Z,72.92
2019-01-27T12:14:56.310Z,73.50
2019-01-27T12:15:57.295Z,71.96
2019-01-27T12:16:58.281Z,71.84
2019-01-27T12:17:59.174Z,75.67
2019-01-27T12:19:00.040Z,74.87
2019-01-27T12:20:00.899Z,75.21
2019-01-27T12:21:02.058Z,71.86
2019-01-27T12:22:04.703Z,74.88
2019-01-27T12:23:05.727Z,74.78
2019-01-27T12:24:08.562Z,74.16
2019-01-27T12:25:12.211Z,73.59
2019-01-27T12:26:13.076Z,75.56
2019-01-27T12:27:14.138Z,73.00
2019-01-27T12:28:15.032Z,73.19
2019-01-27T12:29:15.893Z,73.89
2019-01-27T12:30:18.060Z,74.47
2019-01-27T12:31:18.923Z,73.46
2019-01-27T12:32:19.775Z,73.78
2019-01-27T12:33:20.852Z,75.95
2019-01-27T12:34:21.716Z,73.12
2019-01-27T12:35:22.571Z,75.71
2019-01-27T12:36:23.449Z,73.22
2019-01-27T12:37:24.315Z,77.33
2019-01-27T12:38:25.224Z,75.21
2019-01-27T12:39:26.085Z,73.94
2019-01-27T12:40:26.936Z,74.50
2019-01-27T12:41:27.796Z,74.25
2019-01-27T12:42:28.655Z,74.53
2019-01-27T12:43:29.645Z,78.06
2019-01-27T12:44:30.617Z,77.50
2019-01-27T12:45:31.681Z,76.73
2019-01-27T12:46:32.537Z,75.81
2019-01-27T12:47:33.521Z,73.44
2019-01-27T12:48:34.556Z,73.77
2019-01-27T12:49:35.557Z,72.55
2019-01-27T12:50:36.560Z,75.19
2019-01-27T12:51:37.529Z,75.97
2019-01-27T12:52:38.413Z,72.91
2019-01-27T12:53:39.423Z,76.37
2019-01-27T12:54:40.381Z,76.51
2019-01-27T12:55:41.244Z,77.47
2019-01-27T12:56:42.135Z,73.53
2019-01-27T12:57:42.966Z,74.23
2019-01-27T12:58:43.869Z,74.98
2019-01-27T12:59:44.734Z,75.22
2019-01-27T13:00:49.298Z,75.20
2019-01-27T13:01:50.278Z,75.07
2019-01-27T13:02:51.144Z,75.12
2019-01-27T13:03:52.033Z,76.52
2019-01-27T13:04:52.889Z,76.89
2019-01-27T13:05:53.875Z,75.99
2019-01-27T13:06:54.826Z,75.72
2019-01-27T13:07:55.802Z,74.50
2019-01-27T13:08:56.704Z,76.48
2019-01-27T13:09:57.714Z,74.74
2019-01-27T13:10:58.694Z,75.40
2019-01-27T13:11:59.545Z,75.33
2019-01-27T13:13:00.399Z,74.65
2019-01-27T13:14:01.449Z,76.94
2019-01-27T13:15:04.814Z,74.16
2019-01-27T13:16:05.777Z,74.29
2019-01-27T13:17:07.651Z,74.75
2019-01-27T13:18:09.087Z,75.62
2019-01-27T13:19:09.979Z,74.37
2019-01-27T13:20:12.524Z,77.39
2019-01-27T13:21:13.493Z,74.38
2019-01-27T13:22:14.395Z,74.17
2019-01-27T13:23:15.391Z,77.21
2019-01-27T13:24:16.381Z,73.28
2019-01-27T13:25:18.740Z,73.52
2019-01-27T13:26:19.609Z,73.85
2019-01-27T13:27:20.589Z,73.70
2019-01-27T13:28:21.447Z,76.93
2019-01-27T13:29:22.499Z,75.94
2019-01-27T13:30:25.386Z,72.87
2019-01-27T13:31:26.380Z,73.17
2019-01-27T13:32:27.312Z,73.34
2019-01-27T13:33:28.182Z,73.77
2019-01-27T13:34:29.097Z,74.33
2019-01-27T13:35:30.055Z,72.88
2019-01-27T13:36:30.915Z,72.85
2019-01-27T13:37:31.940Z,73.16
2019-01-27T13:38:32.895Z,75.30
2019-01-27T13:39:33.763Z,73.67